createdAt,value
2022-10-07T00:00:55.209Z,8.00
2022-10-07T00:03:23.831Z,8.00
2022-10-07T00:06:10.763Z,8.10
2022-10-07T00:08:39.066Z,8.20
2022-10-07T00:11:17.900Z,8.30
2022-10-07T00:13:46.038Z,8.30
2022-10-07T00:16:18.357Z,8.30
2022-10-07T00:18:45.153Z,8.30
2022-10-07T00:21:14.530Z,8.20
2022-10-07T00:23:45.684Z,8.10
2022-10-07T00:26:18.641Z,8.10
2022-10-07T00:28:46.463Z,8.10
2022-10-07T00:31:18.505Z,8.00
2022-10-07T00:33:45.911Z,7.90
2022-10-07T00:36:19.750Z,7.80
2022-10-07T00:38:57.688Z,7.80
2022-10-07T00:41:30.349Z,7.90
2022-10-07T00:43:57.424Z,7.80
2022-10-07T00:46:35.738Z,7.70
2022-10-07T00:49:13.000Z,7.70
2022-10-07T00:51:41.165Z,7.70
2022-10-07T00:54:13.496Z,7.70
2022-10-07T00:56:42.414Z,7.70
2022-10-07T00:59:09.824Z,7.70
2022-10-07T01:01:36.630Z,7.60
2022-10-07T01:04:04.065Z,7.60
2022-10-07T01:06:30.875Z,7.60
2022-10-07T01:08:57.648Z,7.50
2022-10-07T01:11:48.292Z,7.40
2022-10-07T01:14:45.007Z,7.40
2022-10-07T01:17:38.405Z,7.50
2022-10-07T01:20:45.000Z,7.60
2022-10-07T01:23:14.865Z,7.60
2022-10-07T01:26:12.677Z,7.60
2022-10-07T01:29:02.486Z,7.50
2022-10-07T01:31:37.759Z,7.40
2022-10-07T01:34:06.484Z,7.50
2022-10-07T01:36:36.938Z,7.50
2022-10-07T01:39:11.284Z,7.40
2022-10-07T01:41:39.860Z,7.40
2022-10-07T01:44:07.375Z,7.40
2022-10-07T01:46:37.762Z,7.50
2022-10-07T01:49:05.994Z,7.50
2022-10-07T01:51:37.094Z,7.60
2022-10-07T01:54:22.317Z,7.60
2022-10-07T01:57:24.233Z,7.60
2022-10-07T02:00:03.482Z,7.60
2022-10-07T02:03:09.552Z,7.60
2022-10-07T02:05:48.857Z,7.50
2022-10-07T02:08:39.178Z,7.40
2022-10-07T02:11:20.395Z,7.30
2022-10-07T02:14:01.420Z,7.30
2022-10-07T02:16:43.816Z,7.40
2022-10-07T02:19:16.235Z,7.30
2022-10-07T02:21:46.344Z,7.30
2022-10-07T02:24:14.748Z,7.30
2022-10-07T02:26:43.606Z,7.30
2022-10-07T02:29:12.930Z,7.40
2022-10-07T02:31:41.725Z,7.40
2022-10-07T02:34:17.493Z,7.30
2022-10-07T02:36:52.608Z,7.30
2022-10-07T02:39:19.298Z,7.20
2022-10-07T02:42:02.868Z,7.30
2022-10-07T02:44:51.178Z,7.20
2022-10-07T02:47:33.370Z,7.20
2022-10-07T02:50:04.532Z,7.20
2022-10-07T02:52:33.034Z,7.20
2022-10-07T02:55:06.647Z,7.10
2022-10-07T02:57:37.698Z,7.10
2022-10-07T03:00:10.903Z,7.00
2022-10-07T03:02:41.722Z,7.00
2022-10-07T03:05:09.277Z,6.90
2022-10-07T03:07:37.041Z,6.80
2022-10-07T03:10:04.598Z,6.90
2022-10-07T03:12:31.214Z,6.90
2022-10-07T03:14:58.296Z,6.90
2022-10-07T03:17:24.884Z,6.90
2022-10-07T03:19:51.496Z,6.90
2022-10-07T03:22:18.116Z,6.80
2022-10-07T03:24:44.786Z,6.80
2022-10-07T03:27:11.517Z,6.80
2022-10-07T03:29:38.261Z,6.70
2022-10-07T03:32:04.974Z,6.70
2022-10-07T03:34:32.169Z,6.60
2022-10-07T03:36:59.394Z,6.60
2022-10-07T03:39:26.040Z,6.50
2022-10-07T03:41:52.798Z,6.50
2022-10-07T03:44:19.498Z,6.50
2022-10-07T03:46:50.884Z,6.50
2022-10-07T03:49:18.137Z,6.60
2022-10-07T03:51:44.877Z,6.60
2022-10-07T03:54:11.692Z,6.50
2022-10-07T03:56:38.421Z,6.50
2022-10-07T03:59:05.063Z,6.50
2022-10-07T04:01:32.048Z,6.50
2022-10-07T04:04:00.386Z,6.40
2022-10-07T04:06:27.412Z,6.40
2022-10-07T04:08:55.308Z,6.40
2022-10-07T04:11:24.152Z,6.40
2022-10-07T04:13:52.056Z,6.30
2022-10-07T04:16:19.941Z,6.30
2022-10-07T04:18:47.395Z,6.30
2022-10-07T04:21:14.019Z,6.30
2022-10-07T04:23:42.047Z,6.30
2022-10-07T04:26:10.915Z,6.20
2022-10-07T04:28:38.014Z,6.20
2022-10-07T04:31:06.704Z,6.20
2022-10-07T04:33:33.443Z,6.20
2022-10-07T04:36:05.591Z,6.20
2022-10-07T04:38:32.689Z,6.20
2022-10-07T04:41:02.672Z,6.30
2022-10-07T04:43:33.968Z,6.30
2022-10-07T04:46:06.661Z,6.40
2022-10-07T04:48:33.408Z,6.50
2022-10-07T04:51:04.963Z,6.50
2022-10-07T04:53:32.283Z,6.50
2022-10-07T04:56:00.420Z,6.60
2022-10-07T04:58:28.690Z,6.60
2022-10-07T05:00:57.070Z,6.60
2022-10-07T05:03:25.906Z,6.60
2022-10-07T05:05:54.927Z,6.50
2022-10-07T05:08:26.314Z,6.40
2022-10-07T05:10:57.571Z,6.40
2022-10-07T05:13:26.279Z,6.30
2022-10-07T05:15:58.829Z,6.20
2022-10-07T05:18:26.377Z,6.30
2022-10-07T05:20:53.227Z,6.30
2022-10-07T05:23:28.144Z,6.20
2022-10-07T05:26:04.940Z,6.20
2022-10-07T05:28:31.964Z,6.20
2022-10-07T05:31:10.651Z,6.20
2022-10-07T05:33:38.312Z,6.20
2022-10-07T05:36:07.204Z,6.20
2022-10-07T05:38:34.359Z,6.10
2022-10-07T05:41:04.069Z,6.20
2022-10-07T05:43:33.202Z,6.20
2022-10-07T05:46:01.055Z,6.30
2022-10-07T05:48:35.388Z,6.30
2022-10-07T05:51:05.572Z,6.30
2022-10-07T05:53:32.292Z,6.30
2022-10-07T05:55:58.977Z,6.40
2022-10-07T05:58:25.648Z,6.40
2022-10-07T06:01:01.007Z,6.40
2022-10-07T06:03:30.611Z,6.50
2022-10-07T06:05:57.317Z,6.60
2022-10-07T06:08:24.095Z,6.80
2022-10-07T06:11:09.188Z,6.80
2022-10-07T06:13:36.270Z,7.00
2022-10-07T06:16:04.458Z,7.20
2022-10-07T06:18:31.462Z,7.30
2022-10-07T06:21:00.168Z,7.50
2022-10-07T06:23:27.780Z,7.60
2022-10-07T06:25:56.369Z,7.80
2022-10-07T06:28:23.984Z,8.00
2022-10-07T06:30:51.820Z,8.10
2022-10-07T06:33:19.539Z,8.20
2022-10-07T06:38:13.453Z,8.30
2022-10-07T06:40:40.359Z,8.50
2022-10-07T06:43:07.034Z,8.50
2022-10-07T06:45:34.111Z,8.60
2022-10-07T06:48:00.979Z,8.70
2022-10-07T06:50:27.640Z,8.70
2022-10-07T06:52:54.249Z,8.80
2022-10-07T06:55:20.920Z,8.90
2022-10-07T06:57:47.647Z,9.10
2022-10-07T07:00:15.292Z,9.30
2022-10-07T07:02:42.347Z,9.40
2022-10-07T07:05:13.240Z,9.80
2022-10-07T07:07:39.915Z,10.20
2022-10-07T07:10:07.298Z,10.80
2022-10-07T07:12:34.100Z,11.10
2022-10-07T07:15:01.344Z,11.20
2022-10-07T07:17:28.865Z,11.30
2022-10-07T07:19:56.419Z,11.40
2022-10-07T07:22:23.077Z,11.40
2022-10-07T07:24:49.694Z,11.70
2022-10-07T07:27:16.378Z,11.80
2022-10-07T07:29:43.034Z,12.00
2022-10-07T07:32:09.755Z,12.20
2022-10-07T07:34:38.131Z,12.10
2022-10-07T07:37:04.954Z,12.00
2022-10-07T07:39:31.631Z,12.00
2022-10-07T07:41:58.312Z,12.20
2022-10-07T07:44:25.045Z,12.20
2022-10-07T07:47:15.020Z,12.50
2022-10-07T07:49:54.668Z,12.90
2022-10-07T07:52:21.337Z,13.20
2022-10-07T07:54:48.434Z,13.30
2022-10-07T07:57:15.141Z,13.10
2022-10-07T07:59:41.815Z,13.00
2022-10-07T08:02:10.659Z,13.20
2022-10-07T08:04:37.400Z,13.50
2022-10-07T08:07:04.088Z,13.70
2022-10-07T08:09:30.795Z,13.90
2022-10-07T08:11:57.485Z,14.10
2022-10-07T08:14:24.237Z,13.90
2022-10-07T08:16:51.575Z,14.40
2022-10-07T08:19:18.398Z,14.50
2022-10-07T08:21:45.130Z,14.70
2022-10-07T08:24:13.950Z,15.00
2022-10-07T08:26:41.022Z,15.10
2022-10-07T08:29:08.186Z,15.00
2022-10-07T08:31:35.900Z,14.90
2022-10-07T08:34:04.950Z,14.90
2022-10-07T08:36:33.008Z,14.70
2022-10-07T08:39:01.224Z,14.70
2022-10-07T08:41:34.009Z,14.70
2022-10-07T08:44:08.147Z,14.80
2022-10-07T08:46:36.808Z,14.70
2022-10-07T08:49:14.378Z,14.90
2022-10-07T08:51:50.261Z,14.90
2022-10-07T08:54:21.170Z,14.50
2022-10-07T08:56:49.589Z,14.10
2022-10-07T08:59:30.885Z,14.20
2022-10-07T09:02:19.095Z,14.20
2022-10-07T09:05:05.717Z,14.40
2022-10-07T09:07:34.793Z,14.60
2022-10-07T09:10:10.539Z,14.60
2022-10-07T09:12:52.264Z,15.10
2022-10-07T09:15:31.431Z,15.50
2022-10-07T09:18:04.438Z,15.40
2022-10-07T09:20:35.936Z,15.70
2022-10-07T09:23:04.901Z,15.30
2022-10-07T09:25:31.940Z,15.10
2022-10-07T09:27:58.598Z,15.30
2022-10-07T09:30:27.926Z,15.50
2022-10-07T09:32:55.690Z,15.40
2022-10-07T09:35:29.606Z,15.40
2022-10-07T09:38:02.333Z,15.40
2022-10-07T09:40:31.926Z,15.40
2022-10-07T09:43:00.193Z,15.50
2022-10-07T09:45:35.041Z,15.50
2022-10-07T09:48:20.705Z,15.50
2022-10-07T09:50:48.058Z,15.70
2022-10-07T09:53:24.516Z,15.80
2022-10-07T09:55:54.013Z,15.90
2022-10-07T09:58:24.457Z,16.40
2022-10-07T10:00:53.994Z,16.30
2022-10-07T10:03:24.111Z,16.30
2022-10-07T10:05:54.771Z,15.50
2022-10-07T10:08:28.815Z,15.90
2022-10-07T10:11:04.355Z,16.30
2022-10-07T10:13:38.442Z,16.60
2022-10-07T10:16:25.119Z,16.80
2022-10-07T10:19:02.435Z,17.20
2022-10-07T10:21:35.951Z,17.70
2022-10-07T10:24:06.182Z,17.60
2022-10-07T10:26:36.313Z,17.50
2022-10-07T10:29:23.280Z,17.90
2022-10-07T10:32:02.332Z,17.70
2022-10-07T10:34:49.962Z,17.50
2022-10-07T10:37:20.432Z,17.50
2022-10-07T10:40:14.232Z,17.50
2022-10-07T10:42:48.587Z,17.80
2022-10-07T10:45:24.276Z,17.80
2022-10-07T10:47:57.206Z,17.90
2022-10-07T10:51:14.670Z,17.90
2022-10-07T10:54:15.700Z,17.80
2022-10-07T10:56:45.959Z,18.00
2022-10-07T10:59:40.907Z,18.00
2022-10-07T11:02:37.911Z,17.80
2022-10-07T11:05:14.943Z,17.80
2022-10-07T11:07:56.324Z,18.00
2022-10-07T11:10:34.592Z,18.00
2022-10-07T11:13:13.009Z,18.00
2022-10-07T11:15:44.781Z,18.00
2022-10-07T11:18:27.216Z,17.40
2022-10-07T11:20:57.122Z,17.20
2022-10-07T11:23:45.997Z,17.60
2022-10-07T11:26:34.862Z,17.90
2022-10-07T11:29:24.333Z,17.80
2022-10-07T11:31:57.602Z,17.80
2022-10-07T11:34:56.740Z,17.70
2022-10-07T11:37:45.601Z,18.00
2022-10-07T11:40:12.318Z,17.80
2022-10-07T11:42:45.089Z,18.10
2022-10-07T11:45:31.498Z,18.20
2022-10-07T11:48:07.157Z,18.10
2022-10-07T11:50:46.724Z,17.80
2022-10-07T11:53:22.042Z,18.20
2022-10-07T11:55:56.691Z,18.40
2022-10-07T11:58:27.998Z,18.50
2022-10-07T12:01:25.724Z,18.30
2022-10-07T12:04:21.208Z,18.40
2022-10-07T12:07:35.179Z,18.50
2022-10-07T12:10:01.840Z,18.70
2022-10-07T12:12:47.467Z,18.80
2022-10-07T12:15:26.555Z,18.80
2022-10-07T12:18:03.289Z,18.70
2022-10-07T12:20:55.449Z,18.50
2022-10-07T12:23:22.271Z,18.00
2022-10-07T12:25:56.929Z,18.40
2022-10-07T12:28:23.656Z,18.50
2022-10-07T12:30:53.443Z,18.40
2022-10-07T12:33:45.210Z,18.30
2022-10-07T12:44:02.116Z,19.60
2022-10-07T12:47:18.583Z,19.10
2022-10-07T12:53:20.992Z,19.50
2022-10-07T13:04:00.289Z,19.20
2022-10-07T13:14:42.868Z,20.00
2022-10-07T13:21:13.529Z,19.30
2022-10-07T13:31:20.213Z,19.50
2022-10-07T13:42:02.940Z,19.40
2022-10-07T13:45:05.522Z,19.60
2022-10-07T13:50:47.628Z,19.60
2022-10-07T13:54:17.686Z,19.80
2022-10-07T14:00:12.435Z,20.20
2022-10-07T14:02:41.274Z,20.20
2022-10-07T14:05:29.129Z,20.20
2022-10-07T14:08:10.681Z,19.40
2022-10-07T14:10:49.191Z,19.20
2022-10-07T14:13:16.396Z,18.90
2022-10-07T14:16:44.236Z,18.70
2022-10-07T14:23:48.929Z,18.40
2022-10-07T14:27:03.839Z,18.50
2022-10-07T14:29:59.057Z,18.50
2022-10-07T14:39:42.397Z,18.20
2022-10-07T14:42:18.324Z,18.10
2022-10-07T14:44:45.772Z,18.10
2022-10-07T14:47:20.868Z,18.00
2022-10-07T14:49:48.508Z,18.00
2022-10-07T14:52:47.448Z,17.90
2022-10-07T14:55:24.707Z,17.90
2022-10-07T14:57:51.798Z,18.00
2022-10-07T15:00:20.160Z,18.10
2022-10-07T15:02:48.025Z,18.10
2022-10-07T15:05:15.200Z,18.00
2022-10-07T15:07:42.933Z,17.90
2022-10-07T15:10:33.329Z,17.90
2022-10-07T15:13:00.418Z,18.00
2022-10-07T15:15:27.051Z,17.90
2022-10-07T15:17:53.654Z,17.90
2022-10-07T15:20:21.299Z,17.80
2022-10-07T15:22:48.876Z,17.70
2022-10-07T15:25:17.893Z,17.70
2022-10-07T15:27:44.542Z,17.80
2022-10-07T15:30:12.005Z,17.90
2022-10-07T15:32:38.676Z,18.00
2022-10-07T15:35:05.918Z,18.10
2022-10-07T15:37:33.493Z,18.20
2022-10-07T15:40:00.196Z,18.30
2022-10-07T15:42:26.968Z,18.40
2022-10-07T15:44:53.879Z,18.40
2022-10-07T15:47:20.616Z,18.40
2022-10-07T15:49:47.322Z,18.40
2022-10-07T15:52:14.068Z,18.20
2022-10-07T15:54:40.806Z,18.20
2022-10-07T15:57:08.428Z,18.20
2022-10-07T15:59:35.657Z,18.40
2022-10-07T16:02:03.732Z,18.60
2022-10-07T16:04:30.550Z,18.90
2022-10-07T16:06:57.402Z,19.10
2022-10-07T16:09:24.347Z,19.10
2022-10-07T16:11:51.000Z,19.40
2022-10-07T16:14:17.917Z,19.30
2022-10-07T16:16:45.387Z,19.00
2022-10-07T16:19:12.261Z,18.70
2022-10-07T16:21:41.463Z,18.50
2022-10-07T16:24:13.013Z,18.20
2022-10-07T16:26:39.718Z,17.90
2022-10-07T16:29:30.337Z,17.70
2022-10-07T16:31:59.127Z,17.40
2022-10-07T16:34:28.146Z,17.20
2022-10-07T16:36:55.677Z,17.00
2022-10-07T16:39:22.778Z,16.80
2022-10-07T16:41:53.553Z,16.60
2022-10-07T16:44:20.967Z,16.40
2022-10-07T16:46:48.314Z,16.30
2022-10-07T16:49:17.236Z,16.20
2022-10-07T16:51:45.116Z,16.10
2022-10-07T16:54:15.781Z,16.00
2022-10-07T16:56:46.930Z,15.90
2022-10-07T16:59:21.890Z,15.90
2022-10-07T17:01:51.015Z,15.90
2022-10-07T17:04:18.284Z,15.70
2022-10-07T17:06:46.397Z,15.70
2022-10-07T17:09:13.716Z,15.60
2022-10-07T17:11:40.931Z,15.60
2022-10-07T17:14:16.113Z,15.60
2022-10-07T17:16:45.949Z,15.50
2022-10-07T17:19:14.960Z,15.40
2022-10-07T17:21:42.315Z,15.40
2022-10-07T17:24:09.765Z,15.30
2022-10-07T17:26:37.844Z,15.20
2022-10-07T17:29:07.738Z,15.00
2022-10-07T17:31:36.721Z,14.90
2022-10-07T17:34:03.564Z,14.80
2022-10-07T17:36:31.994Z,14.70
2022-10-07T17:38:59.194Z,14.60
2022-10-07T17:41:28.106Z,14.80
2022-10-07T17:43:57.218Z,14.70
2022-10-07T17:46:26.034Z,14.60
2022-10-07T17:48:54.970Z,14.60
2022-10-07T17:51:24.141Z,14.40
2022-10-07T17:53:51.081Z,14.30
2022-10-07T17:56:18.486Z,14.20
2022-10-07T17:58:47.591Z,14.20
2022-10-07T18:01:22.487Z,14.20
2022-10-07T18:04:00.251Z,14.10
2022-10-07T18:06:32.061Z,14.00
2022-10-07T18:09:03.234Z,14.00
2022-10-07T18:11:48.736Z,13.80
2022-10-07T18:14:34.444Z,13.70
2022-10-07T18:17:01.465Z,13.60
2022-10-07T18:19:29.460Z,13.50
2022-10-07T18:21:56.426Z,13.50
2022-10-07T18:24:27.513Z,13.40
2022-10-07T18:26:59.364Z,13.40
2022-10-07T18:29:27.261Z,13.30
2022-10-07T18:31:54.156Z,13.30
2022-10-07T18:34:20.888Z,13.30
2022-10-07T18:36:47.621Z,13.40
2022-10-07T18:39:14.341Z,13.40
2022-10-07T18:41:41.124Z,13.40
2022-10-07T18:44:09.303Z,13.30
2022-10-07T18:46:36.090Z,13.30
2022-10-07T18:49:02.806Z,13.30
2022-10-07T18:51:29.481Z,13.30
2022-10-07T18:53:56.135Z,13.30
2022-10-07T18:56:24.069Z,13.20
2022-10-07T18:58:52.706Z,13.20
2022-10-07T19:01:24.837Z,13.20
2022-10-07T19:03:55.840Z,13.20
2022-10-07T19:06:24.453Z,13.20
2022-10-07T19:08:56.098Z,13.20
2022-10-07T19:11:23.800Z,13.10
2022-10-07T19:13:56.416Z,13.10
2022-10-07T19:16:29.268Z,13.00
2022-10-07T19:18:59.027Z,13.00
2022-10-07T19:21:26.285Z,12.90
2022-10-07T19:23:54.978Z,12.90
2022-10-07T19:26:27.082Z,12.90
2022-10-07T19:28:54.821Z,12.90
2022-10-07T19:31:24.806Z,12.90
2022-10-07T19:33:55.989Z,12.90
2022-10-07T19:36:23.536Z,13.00
2022-10-07T19:38:53.675Z,13.00
2022-10-07T19:41:23.258Z,13.00
2022-10-07T19:43:50.794Z,13.10
2022-10-07T19:46:19.221Z,13.10
2022-10-07T19:48:46.269Z,13.20
2022-10-07T19:51:15.618Z,13.20
2022-10-07T19:53:47.048Z,13.30
2022-10-07T19:56:23.924Z,13.30
2022-10-07T19:58:56.348Z,13.40
2022-10-07T20:01:25.716Z,13.30
2022-10-07T20:04:04.665Z,13.40
2022-10-07T20:06:32.129Z,13.40
2022-10-07T20:08:59.109Z,13.40
2022-10-07T20:11:27.743Z,13.40
2022-10-07T20:13:54.934Z,13.40
2022-10-07T20:16:25.852Z,13.30
2022-10-07T20:19:00.985Z,13.30
2022-10-07T20:21:28.701Z,13.30
2022-10-07T20:23:55.542Z,13.20
2022-10-07T20:26:33.565Z,13.20
2022-10-07T20:29:01.882Z,13.20
2022-10-07T20:31:34.832Z,13.10
2022-10-07T20:34:02.638Z,13.10
2022-10-07T20:36:34.860Z,13.10
2022-10-07T20:39:26.121Z,13.10
2022-10-07T20:42:12.116Z,13.00
2022-10-07T20:44:39.184Z,12.90
2022-10-07T20:47:07.777Z,12.90
2022-10-07T20:49:35.297Z,12.90
2022-10-07T20:52:06.976Z,12.80
2022-10-07T20:54:33.709Z,12.90
2022-10-07T20:57:00.775Z,12.80
2022-10-07T20:59:28.854Z,12.90
2022-10-07T21:01:55.639Z,12.90
2022-10-07T21:04:28.114Z,12.90
2022-10-07T21:06:56.443Z,12.90
2022-10-07T21:09:24.261Z,12.80
2022-10-07T21:11:51.816Z,12.80
2022-10-07T21:14:19.175Z,12.70
2022-10-07T21:16:47.284Z,12.70
2022-10-07T21:19:14.974Z,12.70
2022-10-07T21:21:42.021Z,12.70
2022-10-07T21:24:08.848Z,12.60
2022-10-07T21:26:36.495Z,12.50
2022-10-07T21:29:08.150Z,12.40
2022-10-07T21:31:35.645Z,12.40
2022-10-07T21:34:10.331Z,12.40
2022-10-07T21:36:40.481Z,12.30
2022-10-07T21:39:07.708Z,12.20
2022-10-07T21:41:37.421Z,12.10
2022-10-07T21:44:06.287Z,12.10
2022-10-07T21:46:35.119Z,12.10
2022-10-07T21:49:02.365Z,12.00
2022-10-07T21:51:32.336Z,12.00
2022-10-07T21:53:59.101Z,11.90
2022-10-07T21:56:28.163Z,11.90
2022-10-07T21:58:56.922Z,11.90
2022-10-07T22:01:25.204Z,11.90
2022-10-07T22:03:57.597Z,11.80
2022-10-07T22:06:44.197Z,11.90
2022-10-07T22:09:11.798Z,11.90
2022-10-07T22:11:38.625Z,12.10
2022-10-07T22:14:09.942Z,12.10
2022-10-07T22:16:38.990Z,12.20
2022-10-07T22:19:05.931Z,12.30
2022-10-07T22:21:33.368Z,12.40
2022-10-07T22:24:02.782Z,12.50
2022-10-07T22:26:35.229Z,12.50
2022-10-07T22:29:01.932Z,12.60
2022-10-07T22:31:31.842Z,12.70
2022-10-07T22:34:00.153Z,12.70
2022-10-07T22:36:28.977Z,12.70
2022-10-07T22:38:56.879Z,12.80
2022-10-07T22:41:24.464Z,12.80
2022-10-07T22:43:52.594Z,12.80
2022-10-07T22:46:25.898Z,12.90
2022-10-07T22:48:57.917Z,12.90
2022-10-07T22:51:28.548Z,13.00
2022-10-07T22:53:56.229Z,13.00
2022-10-07T22:56:24.965Z,13.00
2022-10-07T22:59:00.750Z,13.10
2022-10-07T23:01:31.956Z,13.10
2022-10-07T23:04:03.270Z,13.10
2022-10-07T23:06:33.174Z,13.10
2022-10-07T23:09:00.792Z,13.10
2022-10-07T23:11:28.895Z,13.20
2022-10-07T23:13:55.831Z,13.20
2022-10-07T23:16:25.004Z,13.30
2022-10-07T23:18:53.596Z,13.30
2022-10-07T23:21:23.247Z,13.30
2022-10-07T23:23:52.122Z,13.30
2022-10-07T23:26:24.205Z,13.30
2022-10-07T23:28:51.992Z,13.30
2022-10-07T23:31:21.057Z,13.30
2022-10-07T23:33:49.651Z,13.30
2022-10-07T23:36:17.452Z,13.30
2022-10-07T23:38:46.785Z,13.30
2022-10-07T23:41:25.122Z,13.30
2022-10-07T23:43:53.243Z,13.20
2022-10-07T23:46:21.005Z,13.10
2022-10-07T23:48:47.911Z,13.10
2022-10-07T23:51:17.531Z,13.10
2022-10-07T23:53:44.562Z,13.00
2022-10-07T23:56:11.343Z,13.00
2022-10-07T23:58:38.667Z,13.00
